createdAt,value
2023-04-03T00:01:11.464Z,99.90
2023-04-03T00:03:38.569Z,99.90
2023-04-03T00:06:07.901Z,99.90
2023-04-03T00:08:34.911Z,99.90
2023-04-03T00:11:02.845Z,99.90
2023-04-03T00:13:30.444Z,99.90
2023-04-03T00:15:57.441Z,99.90
2023-04-03T00:18:24.333Z,99.90
2023-04-03T00:20:51.561Z,99.90
2023-04-03T00:23:18.526Z,99.90
2023-04-03T00:25:45.610Z,99.90
2023-04-03T00:28:12.879Z,99.90
2023-04-03T00:30:39.898Z,99.90
2023-04-03T00:33:07.313Z,99.90
2023-04-03T00:35:36.326Z,99.90
2023-04-03T00:38:03.402Z,99.90
2023-04-03T00:40:42.591Z,99.90
2023-04-03T00:43:17.229Z,99.90
2023-04-03T00:45:46.519Z,99.90
2023-04-03T00:48:19.809Z,99.90
2023-04-03T00:50:47.530Z,99.90
2023-04-03T00:53:25.852Z,99.90
2023-04-03T00:55:56.297Z,99.90
2023-04-03T00:58:53.453Z,99.90
2023-04-03T01:01:24.970Z,99.90
2023-04-03T01:03:52.384Z,99.90
2023-04-03T01:06:24.201Z,99.90
2023-04-03T01:08:52.076Z,99.90
2023-04-03T01:11:19.500Z,99.90
2023-04-03T01:13:46.736Z,99.90
2023-04-03T01:16:14.026Z,99.90
2023-04-03T01:18:41.905Z,99.90
2023-04-03T01:21:29.596Z,99.90
2023-04-03T01:24:05.658Z,99.90
2023-04-03T01:26:34.058Z,99.90
2023-04-03T01:29:01.698Z,99.90
2023-04-03T01:31:36.876Z,99.90
2023-04-03T01:34:04.513Z,99.90
2023-04-03T01:36:33.062Z,99.90
2023-04-03T01:39:01.404Z,99.90
2023-04-03T01:41:29.347Z,99.90
2023-04-03T01:43:56.384Z,99.90
2023-04-03T01:46:23.679Z,99.90
2023-04-03T01:48:51.878Z,99.90
2023-04-03T01:51:18.989Z,99.90
2023-04-03T01:53:46.215Z,99.90
2023-04-03T01:56:13.488Z,99.90
2023-04-03T01:58:40.574Z,99.90
2023-04-03T02:01:07.827Z,99.90
2023-04-03T02:03:35.129Z,99.90
2023-04-03T02:06:02.188Z,99.90
2023-04-03T02:08:29.411Z,99.90
2023-04-03T02:10:56.619Z,99.90
2023-04-03T02:13:23.627Z,99.90
2023-04-03T02:15:51.430Z,99.90
2023-04-03T02:18:18.440Z,99.90
2023-04-03T02:20:45.681Z,99.90
2023-04-03T02:23:12.703Z,99.90
2023-04-03T02:25:39.639Z,99.90
2023-04-03T02:28:07.205Z,99.90
2023-04-03T02:30:34.351Z,99.90
2023-04-03T02:33:01.477Z,99.90
2023-04-03T02:35:28.527Z,99.90
2023-04-03T02:37:55.814Z,99.90
2023-04-03T02:40:22.736Z,99.90
2023-04-03T02:42:49.677Z,99.90
2023-04-03T02:45:16.634Z,99.90
2023-04-03T02:47:43.763Z,99.90
2023-04-03T02:50:11.015Z,99.90
2023-04-03T02:52:38.301Z,99.90
2023-04-03T02:55:06.417Z,99.90
2023-04-03T02:57:33.407Z,99.90
2023-04-03T03:00:00.825Z,99.90
2023-04-03T03:02:27.874Z,99.90
2023-04-03T03:04:54.965Z,99.90
2023-04-03T03:07:21.976Z,99.90
2023-04-03T03:09:49.084Z,99.90
2023-04-03T03:12:16.430Z,99.90
2023-04-03T03:14:44.114Z,99.90
2023-04-03T03:17:11.267Z,99.90
2023-04-03T03:19:38.304Z,99.90
2023-04-03T03:22:05.238Z,99.90
2023-04-03T03:24:32.155Z,99.90
2023-04-03T03:26:59.258Z,99.90
2023-04-03T03:29:26.291Z,99.90
2023-04-03T03:31:53.539Z,99.90
2023-04-03T03:34:20.779Z,99.90
2023-04-03T03:36:47.805Z,99.90
2023-04-03T03:39:14.902Z,99.90
2023-04-03T03:41:41.998Z,99.90
2023-04-03T03:44:09.101Z,99.90
2023-04-03T03:46:36.237Z,99.90
2023-04-03T03:49:10.164Z,99.90
2023-04-03T03:51:37.390Z,99.90
2023-04-03T03:54:05.036Z,99.90
2023-04-03T03:56:32.597Z,99.90
2023-04-03T03:58:59.516Z,99.90
2023-04-03T04:01:26.533Z,99.90
2023-04-03T04:03:55.170Z,99.90
2023-04-03T04:06:22.596Z,99.90
2023-04-03T04:08:49.713Z,99.90
2023-04-03T04:11:16.756Z,99.90
2023-04-03T04:13:43.689Z,99.90
2023-04-03T04:16:11.029Z,99.90
2023-04-03T04:18:38.083Z,99.90
2023-04-03T04:21:05.232Z,99.90
2023-04-03T04:23:32.324Z,99.90
2023-04-03T04:25:59.236Z,99.90
2023-04-03T04:28:26.233Z,99.90
2023-04-03T04:30:53.350Z,99.90
2023-04-03T04:33:20.815Z,99.90
2023-04-03T04:35:49.685Z,99.90
2023-04-03T04:38:16.935Z,99.90
2023-04-03T04:40:43.982Z,99.90
2023-04-03T04:43:11.913Z,99.90
2023-04-03T04:45:39.200Z,99.90
2023-04-03T04:48:06.550Z,99.90
2023-04-03T04:50:33.499Z,99.90
2023-04-03T04:53:00.662Z,99.90
2023-04-03T04:55:27.770Z,99.90
2023-04-03T04:57:54.879Z,99.90
2023-04-03T05:00:22.335Z,99.90
2023-04-03T05:02:49.318Z,99.90
2023-04-03T05:05:16.665Z,99.90
2023-04-03T05:07:43.661Z,99.90
2023-04-03T05:10:11.492Z,99.90
2023-04-03T05:12:38.538Z,99.90
2023-04-03T05:15:06.411Z,99.90
2023-04-03T05:17:33.378Z,99.90
2023-04-03T05:20:00.423Z,99.90
2023-04-03T05:22:27.426Z,99.90
2023-04-03T05:24:54.344Z,99.90
2023-04-03T05:27:21.359Z,99.90
2023-04-03T05:29:48.297Z,99.90
2023-04-03T05:32:15.542Z,99.90
2023-04-03T05:34:42.557Z,99.90
2023-04-03T05:37:09.546Z,99.90
2023-04-03T05:39:36.779Z,99.90
2023-04-03T05:42:03.976Z,99.90
2023-04-03T05:44:30.879Z,99.90
2023-04-03T05:46:57.888Z,99.90
2023-04-03T05:49:24.787Z,99.90
2023-04-03T05:51:53.038Z,99.90
2023-04-03T05:54:31.227Z,99.90
2023-04-03T05:56:58.463Z,99.90
2023-04-03T05:59:25.455Z,99.90
2023-04-03T06:01:52.441Z,99.90
2023-04-03T06:04:20.251Z,99.90
2023-04-03T06:06:55.834Z,99.90
2023-04-03T06:09:26.640Z,99.90
2023-04-03T06:11:54.193Z,99.90
2023-04-03T06:14:21.356Z,99.90
2023-04-03T06:16:48.560Z,99.90
2023-04-03T06:19:15.814Z,99.90
2023-04-03T06:21:43.589Z,99.90
2023-04-03T06:24:13.578Z,99.90
2023-04-03T06:26:40.571Z,99.90
2023-04-03T06:29:08.258Z,99.90
2023-04-03T06:31:37.546Z,99.90
2023-04-03T06:34:07.301Z,99.90
2023-04-03T06:36:36.330Z,99.90
2023-04-03T06:39:04.336Z,99.90
2023-04-03T06:41:31.763Z,99.90
2023-04-03T06:43:59.550Z,99.70
2023-04-03T06:46:28.408Z,99.90
2023-04-03T06:48:55.843Z,98.60
2023-04-03T06:51:26.811Z,98.40
2023-04-03T06:53:57.915Z,97.50
2023-04-03T06:56:26.370Z,98.10
2023-04-03T06:58:55.770Z,97.30
2023-04-03T07:01:22.885Z,97.60
2023-04-03T07:03:50.271Z,97.30
2023-04-03T07:06:18.930Z,96.20
2023-04-03T07:08:46.835Z,95.80
2023-04-03T07:11:14.487Z,96.00
2023-04-03T07:13:41.660Z,95.90
2023-04-03T07:16:09.641Z,95.50
2023-04-03T07:18:37.351Z,94.40
2023-04-03T07:21:05.174Z,95.50
2023-04-03T07:23:32.270Z,95.60
2023-04-03T07:25:59.818Z,95.50
2023-04-03T07:28:27.194Z,94.90
2023-04-03T07:31:09.831Z,95.70
2023-04-03T07:33:38.374Z,95.00
2023-04-03T07:36:08.015Z,94.70
2023-04-03T07:41:18.685Z,95.10
2023-04-03T07:43:46.303Z,94.10
2023-04-03T07:46:13.895Z,94.60
2023-04-03T07:48:40.927Z,95.60
2023-04-03T07:51:07.932Z,96.20
2023-04-03T07:53:35.089Z,95.70
2023-04-03T07:56:03.782Z,96.60
2023-04-03T07:58:31.360Z,96.60
2023-04-03T08:00:58.513Z,96.30
2023-04-03T08:03:25.667Z,94.90
2023-04-03T08:05:54.535Z,96.10
2023-04-03T08:08:24.058Z,96.00
2023-04-03T08:10:55.266Z,96.40
2023-04-03T08:13:23.241Z,97.60
2023-04-03T08:15:50.608Z,98.20
2023-04-03T08:18:18.208Z,98.60
2023-04-03T08:20:45.995Z,98.20
2023-04-03T08:23:13.218Z,98.90
2023-04-03T08:25:43.917Z,99.20
2023-04-03T08:28:12.408Z,98.50
2023-04-03T08:30:43.771Z,98.10
2023-04-03T08:33:11.824Z,98.10
2023-04-03T08:35:43.589Z,98.30
2023-04-03T08:38:11.515Z,98.10
2023-04-03T08:40:39.175Z,98.60
2023-04-03T08:43:21.135Z,99.50
2023-04-03T08:45:54.981Z,99.50
2023-04-03T08:48:36.345Z,99.80
2023-04-03T08:51:13.101Z,99.60
2023-04-03T08:53:43.504Z,99.90
2023-04-03T08:56:12.627Z,99.90
2023-04-03T08:58:48.726Z,99.90
2023-04-03T09:01:31.105Z,99.00
2023-04-03T09:03:58.152Z,99.10
2023-04-03T09:06:33.670Z,99.90
2023-04-03T09:09:18.565Z,99.60
2023-04-03T09:12:10.466Z,99.80
2023-04-03T09:14:48.424Z,99.50
2023-04-03T09:17:22.117Z,99.60
2023-04-03T09:20:17.218Z,99.90
2023-04-03T09:22:52.097Z,99.90
2023-04-03T09:25:27.205Z,99.90
2023-04-03T09:27:54.770Z,99.90
2023-04-03T09:30:24.862Z,99.60
2023-04-03T09:32:54.658Z,99.90
2023-04-03T09:35:40.531Z,99.90
2023-04-03T09:38:15.275Z,99.80
2023-04-03T09:41:08.828Z,99.90
2023-04-03T09:43:40.049Z,99.90
2023-04-03T09:46:31.351Z,99.90
2023-04-03T09:49:08.325Z,99.90
2023-04-03T09:51:37.528Z,99.90
2023-04-03T09:54:37.108Z,99.90
2023-04-03T09:57:14.545Z,99.90
2023-04-03T10:00:01.602Z,99.90
2023-04-03T10:02:40.696Z,99.90
2023-04-03T10:05:37.109Z,99.90
2023-04-03T10:08:16.408Z,99.90
2023-04-03T10:10:49.422Z,99.90
2023-04-03T10:13:22.455Z,99.90
2023-04-03T10:15:57.200Z,99.90
2023-04-03T10:18:52.161Z,99.90
2023-04-03T10:21:44.024Z,99.90
2023-04-03T10:24:26.380Z,99.90
2023-04-03T10:27:16.916Z,99.90
2023-04-03T10:30:14.829Z,99.90
2023-04-03T10:33:00.423Z,99.90
2023-04-03T10:36:03.831Z,99.90
2023-04-03T10:38:55.332Z,99.90
2023-04-03T10:41:41.620Z,99.90
2023-04-03T10:44:32.883Z,99.90
2023-04-03T10:47:04.877Z,99.90
2023-04-03T10:49:42.546Z,99.90
2023-04-03T10:52:36.379Z,99.90
2023-04-03T10:55:12.919Z,99.90
2023-04-03T10:57:42.197Z,99.90
2023-04-03T11:00:19.610Z,99.80
2023-04-03T11:02:58.737Z,99.00
2023-04-03T11:05:28.550Z,98.90
2023-04-03T11:07:58.251Z,98.50
2023-04-03T11:10:45.513Z,99.60
2023-04-03T11:13:21.508Z,98.10
2023-04-03T11:15:49.270Z,97.80
2023-04-03T11:18:33.741Z,99.30
2023-04-03T11:21:08.637Z,98.90
2023-04-03T11:23:48.892Z,98.50
2023-04-03T11:26:23.577Z,97.40
2023-04-03T11:28:57.494Z,96.70
2023-04-03T11:31:42.771Z,96.80
2023-04-03T11:34:37.474Z,97.50
2023-04-03T11:37:31.249Z,98.20
2023-04-03T11:40:03.865Z,98.20
2023-04-03T11:42:37.074Z,98.20
2023-04-03T11:45:22.883Z,98.30
2023-04-03T11:47:57.558Z,98.50
2023-04-03T11:50:42.870Z,98.10
2023-04-03T11:53:15.902Z,97.80
2023-04-03T11:55:44.247Z,98.20
2023-04-03T11:58:27.579Z,98.20
2023-04-03T12:01:03.728Z,97.70
2023-04-03T12:03:32.441Z,98.30
2023-04-03T12:06:11.412Z,97.70
2023-04-03T12:08:46.849Z,97.10
2023-04-03T12:11:13.925Z,98.10
2023-04-03T12:13:49.807Z,97.30
2023-04-03T12:16:35.959Z,96.50
2023-04-03T12:19:15.258Z,97.00
2023-04-03T12:21:48.102Z,98.00
2023-04-03T12:24:18.245Z,97.50
2023-04-03T12:27:05.669Z,97.00
2023-04-03T12:29:44.080Z,97.40
2023-04-03T12:32:30.630Z,97.20
2023-04-03T12:35:18.953Z,98.30
2023-04-03T12:37:52.110Z,98.60
2023-04-03T12:40:41.154Z,98.40
2023-04-03T12:43:43.047Z,98.30
2023-04-03T12:46:10.142Z,98.60
2023-04-03T12:48:52.461Z,98.90
2023-04-03T12:51:44.472Z,99.00
2023-04-03T12:54:37.337Z,99.30
2023-04-03T12:57:33.942Z,99.60
2023-04-03T13:00:01.265Z,99.90
2023-04-03T13:02:35.160Z,99.90
2023-04-03T13:05:09.048Z,99.90
2023-04-03T13:07:40.019Z,99.90
2023-04-03T13:10:10.201Z,99.90
2023-04-03T13:13:10.564Z,99.90
2023-04-03T13:15:50.557Z,99.90
2023-04-03T13:18:33.205Z,99.90
2023-04-03T13:21:24.395Z,99.90
2023-04-03T13:24:00.612Z,99.90
2023-04-03T13:26:34.985Z,99.90
2023-04-03T13:29:08.325Z,99.90
2023-04-03T13:31:39.746Z,99.90
2023-04-03T13:34:20.233Z,99.90
2023-04-03T13:36:56.225Z,99.90
2023-04-03T13:39:27.185Z,99.90
2023-04-03T13:41:56.647Z,99.90
2023-04-03T13:44:23.576Z,99.90
2023-04-03T13:46:51.847Z,99.90
2023-04-03T13:49:23.698Z,99.90
2023-04-03T13:52:03.918Z,99.90
2023-04-03T13:54:37.703Z,99.90
2023-04-03T13:57:15.215Z,99.90
2023-04-03T13:59:44.336Z,99.90
2023-04-03T14:02:24.560Z,99.90
2023-04-03T14:04:59.051Z,99.90
2023-04-03T14:07:26.850Z,99.90
2023-04-03T14:09:54.774Z,99.90
2023-04-03T14:12:40.252Z,99.90
2023-04-03T14:15:19.421Z,99.90
2023-04-03T14:17:46.699Z,99.90
2023-04-03T14:20:19.070Z,99.90
2023-04-03T14:22:46.066Z,99.90
2023-04-03T14:25:13.288Z,99.90
2023-04-03T14:27:42.892Z,99.90
2023-04-03T14:30:16.654Z,99.90
2023-04-03T14:32:44.053Z,99.90
2023-04-03T14:35:11.031Z,99.90
2023-04-03T14:37:38.075Z,99.90
2023-04-03T14:40:06.194Z,99.90
2023-04-03T14:42:36.937Z,99.90
2023-04-03T14:45:08.147Z,99.90
2023-04-03T14:47:47.804Z,99.90
2023-04-03T14:50:24.608Z,99.90
2023-04-03T14:52:55.114Z,99.90
2023-04-03T14:55:24.812Z,99.90
2023-04-03T14:57:52.568Z,99.90
2023-04-03T15:00:21.942Z,99.90
2023-04-03T15:02:49.687Z,99.90
2023-04-03T15:05:17.885Z,99.90
2023-04-03T15:07:53.398Z,99.90
2023-04-03T15:10:30.412Z,99.90
2023-04-03T15:12:58.350Z,99.90
2023-04-03T15:15:25.933Z,99.90
2023-04-03T15:17:56.050Z,99.90
2023-04-03T15:20:26.281Z,99.90
2023-04-03T15:22:54.105Z,99.90
2023-04-03T15:25:21.292Z,99.90
2023-04-03T15:27:48.984Z,99.90
2023-04-03T15:30:19.386Z,99.90
2023-04-03T15:32:46.586Z,99.90
2023-04-03T15:35:13.913Z,99.90
2023-04-03T15:37:41.053Z,99.90
2023-04-03T15:40:09.081Z,99.90
2023-04-03T15:42:36.230Z,99.90
2023-04-03T15:45:03.292Z,99.90
2023-04-03T15:47:30.770Z,99.90
2023-04-03T15:49:57.945Z,99.90
2023-04-03T15:52:24.920Z,99.90
2023-04-03T15:54:51.934Z,99.90
2023-04-03T15:57:19.026Z,99.90
2023-04-03T15:59:46.061Z,99.90
2023-04-03T16:02:14.458Z,99.90
2023-04-03T16:04:42.110Z,99.90
2023-04-03T16:07:09.158Z,99.90
2023-04-03T16:09:37.014Z,99.90
2023-04-03T16:12:04.686Z,99.90
2023-04-03T16:14:31.639Z,99.90
2023-04-03T16:17:00.124Z,99.90
2023-04-03T16:19:27.224Z,99.90
2023-04-03T16:21:55.908Z,99.90
2023-04-03T16:24:23.308Z,99.90
2023-04-03T16:26:50.279Z,99.90
2023-04-03T16:29:17.352Z,99.90
2023-04-03T16:31:44.420Z,99.90
2023-04-03T16:34:12.173Z,99.90
2023-04-03T16:36:39.371Z,99.90
2023-04-03T16:39:06.444Z,99.90
2023-04-03T16:41:33.406Z,99.90
2023-04-03T16:44:00.380Z,99.90
2023-04-03T16:46:27.678Z,99.90
2023-04-03T16:48:54.644Z,99.90
2023-04-03T16:51:21.648Z,99.90
2023-04-03T16:53:48.544Z,99.90
2023-04-03T16:56:15.735Z,99.90
2023-04-03T16:58:42.808Z,99.90
2023-04-03T17:01:14.990Z,99.90
2023-04-03T17:03:42.098Z,99.90
2023-04-03T17:06:15.740Z,99.90
2023-04-03T17:08:44.159Z,99.90
2023-04-03T17:11:11.217Z,99.90
2023-04-03T17:13:38.374Z,99.90
2023-04-03T17:16:08.391Z,99.90
2023-04-03T17:18:35.921Z,99.90
2023-04-03T17:21:16.630Z,99.90
2023-04-03T17:23:47.199Z,99.90
2023-04-03T17:26:14.142Z,99.90
2023-04-03T17:28:43.567Z,99.90
2023-04-03T17:31:11.843Z,99.90
2023-04-03T17:33:38.935Z,99.90
2023-04-03T17:36:06.331Z,99.90
2023-04-03T17:38:34.141Z,99.90
2023-04-03T17:41:03.658Z,99.90
2023-04-03T17:43:30.911Z,99.90
2023-04-03T17:46:05.841Z,99.90
2023-04-03T17:48:34.297Z,99.90
2023-04-03T17:51:08.731Z,99.90
2023-04-03T17:53:35.800Z,99.90
2023-04-03T17:56:23.937Z,99.90
2023-04-03T17:58:51.717Z,99.90
2023-04-03T18:01:22.020Z,99.90
2023-04-03T18:03:52.258Z,99.90
2023-04-03T18:06:20.902Z,99.90
2023-04-03T18:08:54.791Z,99.90
2023-04-03T18:11:27.461Z,99.90
2023-04-03T18:13:58.188Z,99.90
2023-04-03T18:16:26.464Z,99.90
2023-04-03T18:19:02.581Z,99.90
2023-04-03T18:21:41.482Z,99.90
2023-04-03T18:24:15.828Z,99.90
2023-04-03T18:26:46.825Z,99.90
2023-04-03T18:29:14.348Z,99.90
2023-04-03T18:31:44.445Z,99.90
2023-04-03T18:34:12.260Z,99.90
2023-04-03T18:36:40.899Z,99.90
2023-04-03T18:39:08.099Z,99.90
2023-04-03T18:41:36.752Z,99.90
2023-04-03T18:44:07.137Z,99.90
2023-04-03T18:46:34.575Z,99.90
2023-04-03T18:49:01.845Z,99.90
2023-04-03T18:51:28.829Z,99.90
2023-04-03T18:53:56.036Z,99.90
2023-04-03T18:56:23.179Z,99.90
2023-04-03T18:58:50.342Z,99.90
2023-04-03T19:01:17.493Z,99.90
2023-04-03T19:03:45.054Z,99.90
2023-04-03T19:06:12.306Z,99.90
2023-04-03T19:08:39.709Z,99.90
2023-04-03T19:11:07.263Z,99.90
2023-04-03T19:13:35.437Z,99.90
2023-04-03T19:16:02.646Z,99.90
2023-04-03T19:18:30.445Z,99.90
2023-04-03T19:20:57.863Z,99.90
2023-04-03T19:23:25.566Z,99.90
2023-04-03T19:26:04.242Z,99.90
2023-04-03T19:28:31.484Z,99.90
2023-04-03T19:30:59.309Z,99.90
2023-04-03T19:33:27.302Z,99.90
2023-04-03T19:35:54.698Z,99.90
2023-04-03T19:38:21.715Z,99.90
2023-04-03T19:40:48.911Z,99.90
2023-04-03T19:43:16.916Z,99.90
2023-04-03T19:45:46.114Z,99.90
2023-04-03T19:48:13.317Z,99.90
2023-04-03T19:50:40.617Z,99.90
2023-04-03T19:53:11.275Z,99.90
2023-04-03T19:55:39.028Z,99.90
2023-04-03T19:58:06.441Z,99.90
2023-04-03T20:00:33.467Z,99.90
2023-04-03T20:03:00.642Z,99.90
2023-04-03T20:05:27.648Z,99.90
2023-04-03T20:07:56.128Z,99.90
2023-04-03T20:10:23.106Z,99.90
2023-04-03T20:12:50.430Z,99.90
2023-04-03T20:15:17.916Z,99.90
2023-04-03T20:17:45.335Z,99.90
2023-04-03T20:20:12.747Z,99.90
2023-04-03T20:22:40.823Z,99.90
2023-04-03T20:25:12.258Z,99.90
2023-04-03T20:27:40.346Z,99.90
2023-04-03T20:30:11.731Z,99.90
2023-04-03T20:32:39.127Z,99.90
2023-04-03T20:35:06.994Z,99.90
2023-04-03T20:37:34.040Z,99.90
2023-04-03T20:40:01.096Z,99.90
2023-04-03T20:42:28.058Z,99.90
2023-04-03T20:44:57.446Z,99.90
2023-04-03T20:47:25.189Z,99.90
2023-04-03T20:49:53.802Z,99.90
2023-04-03T20:52:21.187Z,99.90
2023-04-03T20:54:48.279Z,99.90
2023-04-03T20:57:18.028Z,99.90
2023-04-03T20:59:45.152Z,99.90
2023-04-03T21:02:12.779Z,99.90
2023-04-03T21:04:46.564Z,99.90
2023-04-03T21:07:52.387Z,99.90
2023-04-03T21:10:56.967Z,99.90
2023-04-03T21:14:01.695Z,99.90
2023-04-03T21:16:28.636Z,99.90
2023-04-03T21:19:13.834Z,99.90
2023-04-03T21:21:40.886Z,99.90
2023-04-03T21:24:10.326Z,99.90
2023-04-03T21:26:39.458Z,99.90
2023-04-03T21:29:10.141Z,99.90
2023-04-03T21:31:57.305Z,99.90
2023-04-03T21:34:29.650Z,99.90
2023-04-03T21:37:07.601Z,99.90
2023-04-03T21:39:34.672Z,99.90
2023-04-03T21:42:01.950Z,99.90
2023-04-03T21:44:28.943Z,99.90
2023-04-03T21:46:56.194Z,99.90
2023-04-03T21:49:24.320Z,99.90
2023-04-03T21:51:52.547Z,99.90
2023-04-03T21:54:20.490Z,99.90
2023-04-03T21:56:52.402Z,99.90
2023-04-03T21:59:19.714Z,99.90
2023-04-03T22:01:46.719Z,99.90
2023-04-03T22:04:13.811Z,99.90
2023-04-03T22:06:41.071Z,99.90
2023-04-03T22:09:08.129Z,99.90
2023-04-03T22:11:35.055Z,99.90
2023-04-03T22:14:02.054Z,99.90
2023-04-03T22:16:29.848Z,99.90
2023-04-03T22:18:59.461Z,99.90
2023-04-03T22:21:26.836Z,99.90
2023-04-03T22:23:54.814Z,99.90
2023-04-03T22:26:22.034Z,99.90
2023-04-03T22:28:49.201Z,99.90
2023-04-03T22:31:16.924Z,99.90
2023-04-03T22:33:45.315Z,99.90
2023-04-03T22:36:13.881Z,99.90
2023-04-03T22:38:44.233Z,99.90
2023-04-03T22:41:12.021Z,99.90
2023-04-03T22:43:39.999Z,99.90
2023-04-03T22:46:09.338Z,99.90
2023-04-03T22:48:38.833Z,99.90
2023-04-03T22:51:09.859Z,99.90
2023-04-03T22:53:37.394Z,99.90
2023-04-03T22:56:11.303Z,99.90
2023-04-03T22:58:39.363Z,99.90
2023-04-03T23:01:13.808Z,99.90
2023-04-03T23:03:42.607Z,99.90
2023-04-03T23:06:10.283Z,99.90
2023-04-03T23:08:38.961Z,99.90
2023-04-03T23:11:12.465Z,99.90
2023-04-03T23:13:39.621Z,99.90
2023-04-03T23:16:07.281Z,99.90
2023-04-03T23:18:34.515Z,99.90
2023-04-03T23:21:04.260Z,99.90
2023-04-03T23:23:32.208Z,99.90
2023-04-03T23:26:01.810Z,99.90
2023-04-03T23:28:29.868Z,99.90
2023-04-03T23:31:06.955Z,99.90
2023-04-03T23:33:34.379Z,99.90
2023-04-03T23:36:07.843Z,99.90
2023-04-03T23:38:36.033Z,99.90
2023-04-03T23:41:02.995Z,99.90
2023-04-03T23:43:31.295Z,99.90
2023-04-03T23:45:58.802Z,99.90
2023-04-03T23:48:26.167Z,99.90
2023-04-03T23:50:53.272Z,99.90
2023-04-03T23:53:20.246Z,99.90
2023-04-03T23:55:47.308Z,99.90
2023-04-03T23:58:14.473Z,99.90
